Time;durP1;ratioP1;P1;durP2;ratioP2;P2;SDS_P1;SDS_P2;PMS_P1;PMS_P2;Temp;Humidity;BMP_temperature;BMP_pressure;BME280_temperature;BME280_humidity;BME280_pressure;Samples;Min_cycle;Max_cycle;Signal;HPM_P1;HPM_P2
2022/10/29 00:00:39;;;;;;;9.48;6.47;;;;;;;12.22;100.00;100560.13;1641351;84;21049;-49
2022/10/29 00:03:06;;;;;;;8.15;6.12;;;;;;;12.18;100.00;100559.37;1639230;84;21102;-49
2022/10/29 00:05:32;;;;;;;9.58;5.72;;;;;;;12.15;100.00;100554.12;1645639;84;22443;-49
2022/10/29 00:07:59;;;;;;;8.48;6.00;;;;;;;12.13;100.00;100557.34;1642844;84;21634;-49
2022/10/29 00:10:26;;;;;;;11.05;6.83;;;;;;;12.11;100.00;100553.83;1645563;84;21126;-49
2022/10/29 00:12:52;;;;;;;6.03;5.55;;;;;;;12.07;100.00;100551.75;1646796;84;21646;-49
2022/10/29 00:15:19;;;;;;;6.80;6.08;;;;;;;12.05;100.00;100552.28;1642853;84;21073;-49
2022/10/29 00:17:46;;;;;;;10.32;5.37;;;;;;;12.02;100.00;100543.41;1641066;84;22044;-49
2022/10/29 00:20:13;;;;;;;7.42;6.30;;;;;;;11.99;100.00;100544.41;1642429;84;20938;-49
2022/10/29 00:22:40;;;;;;;5.85;5.30;;;;;;;11.95;100.00;100538.75;1643964;84;21053;-49
2022/10/29 00:25:07;;;;;;;10.50;6.53;;;;;;;11.93;100.00;100533.00;1637837;84;21089;-49
2022/10/29 00:27:34;;;;;;;9.45;6.50;;;;;;;11.89;100.00;100526.00;1643235;84;21124;-49
2022/10/29 00:30:01;;;;;;;8.43;7.62;;;;;;;11.86;100.00;100517.55;1646893;84;23199;-49
2022/10/29 00:32:29;;;;;;;7.33;6.62;;;;;;;11.83;100.00;100514.97;1647380;84;21045;-49
2022/10/29 00:34:55;;;;;;;6.70;5.83;;;;;;;11.80;100.00;100513.77;1641885;84;21077;-49
2022/10/29 00:37:21;;;;;;;6.50;5.95;;;;;;;11.76;100.00;100510.77;1640440;84;21074;-49
2022/10/29 00:39:48;;;;;;;6.70;5.85;;;;;;;11.67;100.00;100501.20;1653255;85;21066;-49
2022/10/29 00:42:15;;;;;;;8.65;6.37;;;;;;;11.67;100.00;100501.20;1660494;85;21843;-49
2022/10/29 00:44:41;;;;;;;6.72;5.75;;;;;;;11.66;100.00;100501.27;1652654;85;21063;-49
2022/10/29 00:47:27;;;;;;;12.20;6.55;;;;;;;11.63;100.00;100496.89;1652284;85;21105;-49
2022/10/29 00:49:59;;;;;;;8.75;6.85;;;;;;;11.60;100.00;100501.05;1705318;83;21065;-48
2022/10/29 00:52:25;;;;;;;8.33;6.20;;;;;;;11.56;100.00;100493.16;1699315;83;21033;-49
2022/10/29 00:54:51;;;;;;;8.83;7.92;;;;;;;11.54;100.00;100492.34;1700166;82;21738;-49
2022/10/29 00:57:25;;;;;;;9.53;6.17;;;;;;;11.50;100.00;100487.53;1684992;83;21641;-49
2022/10/29 00:59:51;;;;;;;11.95;7.42;;;;;;;11.50;100.00;100486.65;1700098;83;21494;-49
2022/10/29 01:02:18;;;;;;;9.98;7.05;;;;;;;11.46;100.00;100480.52;1704567;83;21060;-49
2022/10/29 01:04:44;;;;;;;7.12;6.53;;;;;;;11.44;100.00;100474.30;1701749;83;21006;-49
2022/10/29 01:07:11;;;;;;;8.05;6.75;;;;;;;11.44;100.00;100477.00;1695822;83;21555;-49
2022/10/29 01:09:37;;;;;;;8.73;6.42;;;;;;;11.43;100.00;100471.66;1680796;83;21009;-49
2022/10/29 01:12:18;;;;;;;7.35;6.65;;;;;;;11.41;100.00;100479.80;1699019;83;20990;-49
2022/10/29 01:15:08;;;;;;;7.33;6.58;;;;;;;11.40;100.00;100477.20;1698600;83;21407;-49
2022/10/29 01:17:53;;;;;;;6.37;5.78;;;;;;;11.40;100.00;100484.78;1702179;83;21567;-48
2022/10/29 01:20:36;;;;;;;8.23;7.42;;;;;;;11.39;100.00;100481.71;1699045;83;22005;-48
2022/10/29 01:23:35;;;;;;;6.37;5.62;;;;;;;11.37;100.00;100478.19;1701435;83;21051;-48
2022/10/29 01:26:57;;;;;;;13.22;7.92;;;;;;;11.32;100.00;100474.31;1704035;83;21057;-48
2022/10/29 01:29:44;;;;;;;8.50;7.62;;;;;;;11.32;100.00;100474.31;1703760;83;21037;-48
2022/10/29 01:32:40;;;;;;;11.95;8.70;;;;;;;11.29;100.00;100481.66;1696227;83;21035;-49
2022/10/29 01:35:14;;;;;;;9.15;7.97;;;;;;;11.26;100.00;100481.30;1700907;83;21787;-48
2022/10/29 01:38:11;;;;;;;11.78;8.50;;;;;;;11.22;100.00;100476.99;1694820;82;21550;-48
2022/10/29 01:40:51;;;;;;;11.68;8.13;;;;;;;11.18;100.00;100476.69;1694234;82;21082;-48
2022/10/29 01:43:29;;;;;;;8.60;7.37;;;;;;;11.13;100.00;100466.57;1692476;82;21582;-48
2022/10/29 01:46:01;;;;;;;10.18;7.85;;;;;;;11.10;100.00;100476.58;1702478;82;21112;-48
2022/10/29 01:51:27;;;;;;;7.33;6.60;;;;;;;11.01;100.00;100448.18;1767240;78;22807;-48
2022/10/29 01:53:53;;;;;;;9.15;6.72;;;;;;;10.99;100.00;100459.47;1743151;80;21053;-48
2022/10/29 01:56:20;;;;;;;7.30;6.72;;;;;;;10.98;100.00;100456.37;1743122;80;21856;-46
2022/10/29 01:58:49;;;;;;;9.90;7.00;;;;;;;10.95;100.00;100458.73;1752759;79;21065;-44
2022/10/29 02:01:36;;;;;;;7.97;6.62;;;;;;;10.95;100.00;100460.08;1758192;79;21613;-44
2022/10/29 02:04:32;;;;;;;9.13;6.37;;;;;;;10.94;100.00;100456.97;1755111;79;21019;-46
2022/10/29 02:07:34;;;;;;;6.45;5.85;;;;;;;10.94;100.00;100457.44;1760155;80;21093;-46
2022/10/29 02:10:23;;;;;;;7.47;6.60;;;;;;;10.92;100.00;100451.23;1750577;79;21781;-45
2022/10/29 02:12:52;;;;;;;7.97;6.17;;;;;;;10.89;100.00;100448.17;1757521;80;21326;-47
2022/10/29 02:15:26;;;;;;;7.85;6.65;;;;;;;10.89;100.00;100451.33;1752965;79;21069;-47
2022/10/29 02:17:52;;;;;;;11.78;6.08;;;;;;;10.88;100.00;100445.09;1753139;79;21610;-49
2022/10/29 02:20:19;;;;;;;7.45;6.40;;;;;;;10.85;100.00;100438.94;1691986;80;21163;-47
2022/10/29 02:22:46;;;;;;;10.13;7.37;;;;;;;10.82;100.00;100442.61;1756104;79;21848;-47
2022/10/29 02:25:12;;;;;;;13.00;7.97;;;;;;;10.82;100.00;100442.61;1755040;79;21102;-47
2022/10/29 02:27:40;;;;;;;11.85;8.68;;;;;;;10.84;100.00;100446.60;1750475;79;21091;-47
2022/10/29 02:30:08;;;;;;;8.70;7.33;;;;;;;10.82;100.00;100443.96;1751718;80;21089;-48
2022/10/29 02:32:36;;;;;;;9.35;8.48;;;;;;;10.79;100.00;100440.53;1755480;79;21017;-47
2022/10/29 02:35:05;;;;;;;13.38;8.45;;;;;;;10.75;100.00;100444.26;1749825;79;22010;-47
2022/10/29 02:37:31;;;;;;;7.65;6.60;;;;;;;10.71;100.00;100447.55;1753394;79;21050;-48
2022/10/29 02:39:59;;;;;;;7.33;6.55;;;;;;;10.68;100.00;100442.27;1764655;79;21478;-47
2022/10/29 02:42:26;;;;;;;7.00;6.08;;;;;;;10.63;100.00;100436.20;1696803;82;21114;-47
2022/10/29 02:44:53;;;;;;;13.35;6.65;;;;;;;10.63;100.00;100436.20;1708358;81;21076;-47
2022/10/29 02:47:19;;;;;;;8.75;7.17;;;;;;;10.61;100.00;100434.02;1703153;82;21944;-48
2022/10/29 02:49:45;;;;;;;6.47;5.87;;;;;;;10.59;100.00;100426.00;1700856;82;21091;-47
2022/10/29 02:52:12;;;;;;;6.33;5.80;;;;;;;10.57;100.00;100433.71;1687381;82;21083;-48
2022/10/29 02:54:39;;;;;;;6.95;5.90;;;;;;;10.55;100.00;100422.99;1690863;82;21443;-47
2022/10/29 02:57:05;;;;;;;5.87;5.22;;;;;;;10.57;100.00;100421.59;1687607;82;21103;-47
2022/10/29 02:59:33;;;;;;;8.48;6.72;;;;;;;10.56;100.00;100419.38;1684471;82;21827;-47
2022/10/29 03:01:59;;;;;;;11.00;7.28;;;;;;;10.54;100.00;100405.12;1693922;82;21572;-48
2022/10/29 03:04:25;;;;;;;9.00;6.58;;;;;;;10.53;100.00;100411.43;1687481;82;21055;-48
2022/10/29 03:06:52;;;;;;;10.35;7.42;;;;;;;10.51;100.00;100414.64;1697344;82;21062;-46
2022/10/29 03:09:20;;;;;;;6.73;6.13;;;;;;;10.49;100.00;100410.24;1690044;82;21087;-46
2022/10/29 03:11:46;;;;;;;10.30;6.67;;;;;;;10.48;100.00;100414.75;1691565;82;21929;-49
2022/10/29 03:14:15;;;;;;;7.65;6.92;;;;;;;10.48;100.00;100409.83;1690033;82;21107;-49
2022/10/29 03:16:41;;;;;;;8.53;7.37;;;;;;;10.47;100.00;100404.03;1691744;82;21091;-48
2022/10/29 03:19:08;;;;;;;8.75;7.72;;;;;;;10.45;100.00;100396.50;1688373;82;21492;-49
2022/10/29 03:21:35;;;;;;;13.62;8.78;;;;;;;10.43;100.00;100401.94;1686546;82;21553;-48
2022/10/29 03:24:03;;;;;;;9.30;7.78;;;;;;;10.40;100.00;100403.85;1692488;82;21835;-47
2022/10/29 03:26:30;;;;;;;9.03;7.20;;;;;;;10.37;100.00;100403.52;1686827;82;21075;-47
2022/10/29 03:28:56;;;;;;;7.67;6.30;;;;;;;10.34;100.00;100406.31;1694072;82;21600;-46
2022/10/29 03:31:23;;;;;;;13.75;7.62;;;;;;;10.32;100.00;100403.26;1690207;82;21121;-47
2022/10/29 03:33:50;;;;;;;8.40;6.55;;;;;;;10.29;100.00;100408.31;1689338;82;22282;-47
2022/10/29 03:36:16;;;;;;;6.40;5.90;;;;;;;10.26;100.00;100399.45;1687547;82;21835;-48
2022/10/29 03:38:43;;;;;;;7.70;6.28;;;;;;;10.24;100.00;100395.47;1689934;82;21466;-48
2022/10/29 03:41:10;;;;;;;12.85;5.72;;;;;;;10.22;100.00;100395.98;1748149;79;21069;-46
2022/10/29 03:43:37;;;;;;;10.35;6.35;;;;;;;10.19;100.00;100395.66;1746792;79;21054;-46
2022/10/29 03:46:03;;;;;;;9.40;6.22;;;;;;;10.17;100.00;100385.84;1745792;79;21041;-47
2022/10/29 03:48:30;;;;;;;10.58;6.45;;;;;;;10.13;100.00;100391.78;1742046;79;22475;-46
2022/10/29 03:51:00;;;;;;;9.20;6.20;;;;;;;10.13;100.00;100397.17;1744693;79;21945;-49
2022/10/29 03:53:27;;;;;;;10.70;7.20;;;;;;;10.12;100.00;100383.80;1738509;80;21058;-49
2022/10/29 03:55:54;;;;;;;8.08;6.45;;;;;;;10.11;100.00;100380.70;1739636;80;22569;-47
2022/10/29 03:58:21;;;;;;;8.63;7.53;;;;;;;10.12;100.00;100373.04;1741854;80;21479;-47
2022/10/29 04:01:02;;;;;;;7.17;6.28;;;;;;;10.11;100.00;100359.17;1741632;80;21950;-46
2022/10/29 04:03:30;;;;;;;7.75;5.85;;;;;;;10.11;100.00;100354.67;1744201;80;21031;-49
2022/10/29 04:05:58;;;;;;;8.53;6.33;;;;;;;10.10;100.00;100359.64;1740832;80;21022;-49
2022/10/29 04:08:24;;;;;;;10.90;7.12;;;;;;;10.11;100.00;100351.11;1740475;80;21053;-46
2022/10/29 04:10:51;;;;;;;10.65;6.33;;;;;;;10.10;100.00;100352.03;1740729;80;21051;-46
2022/10/29 04:13:19;;;;;;;9.70;6.65;;;;;;;10.10;100.00;100366.83;1739302;79;21168;-46
2022/10/29 04:15:46;;;;;;;8.30;7.20;;;;;;;10.09;100.00;100360.57;1743371;80;22057;-47
2022/10/29 04:18:13;;;;;;;9.13;7.53;;;;;;;10.08;100.00;100364.66;1745911;80;21082;-49
2022/10/29 04:20:40;;;;;;;13.05;9.45;;;;;;;10.07;100.00;100368.27;1744366;80;21094;-46
2022/10/29 04:23:06;;;;;;;10.75;8.20;;;;;;;10.05;100.00;100364.75;1739861;80;21046;-46
2022/10/29 04:25:34;;;;;;;11.00;7.37;;;;;;;10.02;100.00;100362.20;1705675;82;21056;-47
2022/10/29 04:28:01;;;;;;;11.70;7.20;;;;;;;10.00;100.00;100355.98;1684591;82;22162;-47
2022/10/29 04:30:27;;;;;;;10.95;7.42;;;;;;;9.96;100.00;100355.20;1686200;82;21108;-49
2022/10/29 04:32:58;;;;;;;9.73;7.90;;;;;;;9.96;100.00;100361.05;1702694;82;21094;-47
2022/10/29 04:35:26;;;;;;;8.08;6.70;;;;;;;9.92;100.00;100360.77;1742864;80;21046;-47
2022/10/29 04:37:55;;;;;;;12.18;7.05;;;;;;;9.92;100.00;100357.61;1743868;80;21983;-47
2022/10/29 04:40:23;;;;;;;12.47;6.70;;;;;;;9.91;100.00;100361.23;1741204;80;21141;-47
2022/10/29 04:42:50;;;;;;;9.48;6.47;;;;;;;9.91;100.00;100356.32;1736127;80;21086;-46
2022/10/29 04:45:17;;;;;;;9.05;6.42;;;;;;;9.90;100.00;100350.06;1745727;80;21496;-47
2022/10/29 04:47:45;;;;;;;9.88;7.20;;;;;;;9.89;100.00;100352.33;1737649;80;21577;-47
2022/10/29 04:50:11;;;;;;;8.80;6.33;;;;;;;9.88;100.00;100347.89;1742217;80;21906;-45
2022/10/29 04:52:38;;;;;;;9.40;7.15;;;;;;;9.87;100.00;100342.09;1722788;81;21571;-48
2022/10/29 04:55:06;;;;;;;10.03;6.75;;;;;;;9.86;100.00;100349.31;1719144;81;21100;-46
2022/10/29 04:57:32;;;;;;;7.40;6.45;;;;;;;9.86;100.00;100349.31;1726439;81;21469;-47
2022/10/29 04:59:59;;;;;;;9.30;7.20;;;;;;;9.86;100.00;100342.59;1724170;81;21518;-47
2022/10/29 05:02:25;;;;;;;9.33;7.08;;;;;;;9.86;100.00;100357.38;1718682;81;21922;-46
2022/10/29 05:04:51;;;;;;;10.88;7.12;;;;;;;9.86;100.00;100348.43;1722118;81;22029;-46
2022/10/29 05:07:18;;;;;;;10.00;7.70;;;;;;;9.85;100.00;100346.20;1723845;81;21613;-47
2022/10/29 05:09:46;;;;;;;10.75;7.12;;;;;;;9.87;100.00;100347.47;1722860;81;21126;-46
2022/10/29 05:12:14;;;;;;;9.85;7.42;;;;;;;9.89;100.00;100342.92;1712925;81;21059;-46
2022/10/29 05:14:40;;;;;;;16.15;8.50;;;;;;;9.90;100.00;100341.99;1719304;81;21901;-46
2022/10/29 05:17:06;;;;;;;8.95;8.03;;;;;;;9.92;100.00;100332.06;1717505;81;21330;-46
2022/10/29 05:19:33;;;;;;;9.70;8.63;;;;;;;9.94;100.00;100332.02;1732805;81;21371;-48
2022/10/29 05:22:00;;;;;;;11.70;8.43;;;;;;;9.94;100.00;100327.52;1723477;81;21638;-46
2022/10/29 05:24:27;;;;;;;9.08;7.53;;;;;;;9.96;100.00;100328.78;1715555;81;21570;-47
2022/10/29 05:26:54;;;;;;;8.33;7.45;;;;;;;9.96;100.00;100336.84;1716863;81;21914;-47
2022/10/29 05:29:20;;;;;;;9.50;7.67;;;;;;;9.98;100.00;100329.61;1735124;81;21487;-46
2022/10/29 05:31:47;;;;;;;9.78;7.67;;;;;;;9.99;100.00;100328.22;1719318;81;21056;-48
2022/10/29 05:34:13;;;;;;;10.98;7.83;;;;;;;10.02;100.00;100338.87;1721826;81;21087;-47
2022/10/29 05:36:40;;;;;;;10.85;7.87;;;;;;;10.05;100.00;100344.12;1725662;81;21042;-47
2022/10/29 05:39:08;;;;;;;7.60;6.80;;;;;;;10.11;100.00;100343.91;1715127;81;21559;-46
2022/10/29 05:41:35;;;;;;;12.15;7.45;;;;;;;10.17;100.00;100344.14;1722625;81;21562;-47
2022/10/29 05:44:02;;;;;;;10.63;8.18;;;;;;;10.22;100.00;100339.48;1717483;81;21081;-47
2022/10/29 05:46:29;;;;;;;9.90;7.62;;;;;;;10.24;100.00;100342.55;1717977;81;21612;-47
2022/10/29 05:48:55;;;;;;;15.28;8.23;;;;;;;10.30;100.00;100344.58;1718133;81;21015;-47
2022/10/29 05:51:23;;;;;;;10.23;7.60;;;;;;;10.34;100.00;100335.00;1725452;80;22066;-47
2022/10/29 05:53:50;;;;;;;14.85;6.95;;;;;;;10.37;100.00;100336.25;1740207;80;21073;-48
2022/10/29 05:56:16;;;;;;;9.03;7.20;;;;;;;10.41;100.00;100330.26;1741632;79;21085;-46
2022/10/29 05:58:44;;;;;;;9.15;8.23;;;;;;;10.46;100.00;100327.79;1743210;80;21098;-48
2022/10/29 06:01:10;;;;;;;12.40;7.60;;;;;;;10.52;100.00;100329.39;1739708;79;21065;-49
2022/10/29 06:03:38;;;;;;;10.13;8.40;;;;;;;10.58;100.00;100330.02;1742235;80;21838;-46
2022/10/29 06:06:05;;;;;;;14.10;9.13;;;;;;;10.65;100.00;100335.16;1739546;80;21062;-48
2022/10/29 06:08:31;;;;;;;14.03;8.55;;;;;;;10.72;100.00;100325.92;1736394;80;21007;-46
2022/10/29 06:11:01;;;;;;;11.30;8.58;;;;;;;10.78;100.00;100326.55;1736932;79;21058;-48
2022/10/29 06:13:28;;;;;;;11.33;9.33;;;;;;;10.84;100.00;100328.98;1740709;79;21089;-47
2022/10/29 06:15:58;;;;;;;11.15;8.33;;;;;;;10.90;100.00;100328.73;1740258;79;21566;-47
2022/10/29 06:18:27;;;;;;;15.23;8.63;;;;;;;10.97;100.00;100340.16;1746989;79;21056;-46
2022/10/29 06:20:59;;;;;;;8.55;6.72;;;;;;;11.04;100.00;100331.35;1755981;80;22363;-46
2022/10/29 06:23:27;;;;;;;10.55;8.23;;;;;;;11.08;100.00;100324.41;1743628;80;21049;-47
2022/10/29 06:25:54;;;;;;;7.22;6.62;;;;;;;11.20;100.00;100323.04;1738348;79;22946;-46
2022/10/29 06:28:21;;;;;;;11.55;7.62;;;;;;;11.20;100.00;100323.04;1746193;80;21821;-47
2022/10/29 06:30:48;;;;;;;11.10;8.30;;;;;;;11.29;100.00;100326.23;1683692;83;21290;-49
2022/10/29 06:33:18;;;;;;;8.93;7.42;;;;;;;11.37;100.00;100328.13;1697811;82;21040;-47
2022/10/29 06:35:44;;;;;;;10.48;7.80;;;;;;;11.49;100.00;100334.80;1687712;83;21032;-48
2022/10/29 06:38:11;;;;;;;16.15;8.80;;;;;;;11.57;100.00;100333.15;1744733;79;21023;-46
2022/10/29 06:40:38;;;;;;;10.85;6.87;;;;;;;11.67;100.00;100331.78;1742533;80;21809;-46
2022/10/29 06:43:08;;;;;;;11.97;8.90;;;;;;;11.67;100.00;100331.78;1743702;80;21090;-46
2022/10/29 06:45:34;;;;;;;8.33;7.08;;;;;;;11.70;100.00;100328.96;1741087;80;21038;-47
2022/10/29 06:48:03;;;;;;;13.53;8.65;;;;;;;11.75;100.00;100317.52;1738012;79;21014;-48
2022/10/29 06:50:30;;;;;;;9.80;7.55;;;;;;;11.75;100.00;100317.52;1743259;79;21042;-47
2022/10/29 06:52:58;;;;;;;8.80;6.75;;;;;;;11.77;100.00;100312.06;1740352;80;22563;-47
2022/10/29 06:55:25;;;;;;;8.85;7.28;;;;;;;11.77;100.00;100312.06;1738162;80;21041;-49
2022/10/29 06:58:04;;;;;;;9.85;7.42;;;;;;;11.78;100.00;100306.61;1738959;80;21049;-48
2022/10/29 07:00:31;;;;;;;11.53;7.97;;;;;;;11.77;100.00;100299.93;1737894;80;21038;-47
2022/10/29 07:02:58;;;;;;;11.75;7.95;;;;;;;11.77;100.00;100294.06;1743946;80;21026;-48
2022/10/29 07:05:25;;;;;;;10.45;8.00;;;;;;;11.81;100.00;100282.21;1744915;80;21842;-47
2022/10/29 07:07:56;;;;;;;11.50;9.55;;;;;;;11.93;100.00;100273.55;1745360;80;21062;-48
2022/10/29 07:10:23;;;;;;;11.43;7.90;;;;;;;11.93;100.00;100273.55;1739499;80;21751;-47
2022/10/29 07:12:49;;;;;;;10.00;8.25;;;;;;;12.04;100.00;100268.55;1739643;80;21516;-48
2022/10/29 07:15:18;;;;;;;12.30;8.35;;;;;;;12.16;100.00;100266.23;1740872;80;21582;-48
2022/10/29 07:17:56;;;;;;;10.93;8.38;;;;;;;12.26;100.00;100265.70;1739336;80;21832;-50
2022/10/29 07:20:24;;;;;;;12.28;7.53;;;;;;;12.35;100.00;100270.67;1731623;80;20994;-49
2022/10/29 07:22:51;;;;;;;10.23;8.70;;;;;;;12.44;100.00;100273.41;1742377;80;21026;-49
2022/10/29 07:25:18;;;;;;;12.82;8.80;;;;;;;12.51;100.00;100288.37;1741998;80;21079;-48
2022/10/29 07:27:44;;;;;;;10.23;8.88;;;;;;;12.59;100.00;100290.73;1748135;80;21499;-50
2022/10/29 07:30:11;;;;;;;12.05;8.85;;;;;;;12.62;100.00;100288.74;1739983;80;21806;-47
2022/10/29 07:32:37;;;;;;;11.68;9.30;;;;;;;12.63;100.00;100283.74;1744926;80;21121;-51
2022/10/29 07:35:05;;;;;;;13.45;9.93;;;;;;;12.64;100.00;100273.81;1744612;80;21049;-48
2022/10/29 07:40:07;;;;;;;11.97;8.60;;;;;;;12.65;100.00;100258.90;1860026;75;28039;-45
2022/10/29 07:42:33;;;;;;;12.53;8.00;;;;;;;12.63;100.00;100263.96;1809745;77;21088;-45
2022/10/29 07:45:00;;;;;;;13.60;7.90;;;;;;;12.62;100.00;100260.86;1799049;77;21835;-46
2022/10/29 07:47:26;;;;;;;8.78;6.92;;;;;;;12.60;100.00;100256.88;1812542;77;21017;-45
2022/10/29 07:49:54;;;;;;;13.03;9.90;;;;;;;12.61;100.00;100272.13;1809139;77;21032;-46
2022/10/29 07:52:20;;;;;;;11.97;7.78;;;;;;;12.63;100.00;100271.59;1811495;77;21032;-46
2022/10/29 07:54:48;;;;;;;8.65;7.22;;;;;;;12.68;100.00;100283.03;1811770;77;21022;-46
2022/10/29 07:57:14;;;;;;;10.90;8.43;;;;;;;12.72;100.00;100284.66;1818475;77;22634;-48
2022/10/29 07:59:42;;;;;;;15.30;9.70;;;;;;;12.78;100.00;100284.34;1806398;77;21609;-46
2022/10/29 08:02:09;;;;;;;16.25;9.10;;;;;;;12.86;100.00;100269.98;1798461;77;21003;-46
2022/10/29 08:04:36;;;;;;;12.05;9.38;;;;;;;12.95;100.00;100270.48;1798413;77;21073;-45
2022/10/29 08:07:02;;;;;;;11.83;9.00;;;;;;;13.05;100.00;100278.06;1799079;77;21470;-46
2022/10/29 08:09:29;;;;;;;12.55;8.58;;;;;;;13.14;100.00;100267.30;1798659;77;21830;-48
2022/10/29 08:11:57;;;;;;;10.88;9.28;;;;;;;13.23;100.00;100263.66;1801883;77;21010;-47
2022/10/29 08:14:23;;;;;;;12.75;9.40;;;;;;;13.29;100.00;100261.09;1803364;77;21603;-45
2022/10/29 08:16:53;;;;;;;14.00;10.03;;;;;;;13.36;100.00;100250.84;1806290;77;21057;-46
2022/10/29 08:19:21;;;;;;;15.90;10.23;;;;;;;13.41;100.00;100253.72;1797134;77;21009;-48
2022/10/29 08:21:49;;;;;;;13.78;9.80;;;;;;;13.48;100.00;100256.97;1807576;77;21263;-49
2022/10/29 08:24:16;;;;;;;9.63;8.58;;;;;;;13.54;100.00;100253.94;1789050;77;21571;-52
2022/10/29 08:26:42;;;;;;;11.97;9.18;;;;;;;13.62;100.00;100244.95;1806486;77;20989;-48
2022/10/29 08:29:09;;;;;;;9.18;7.65;;;;;;;13.68;100.00;100245.12;1799496;77;21480;-47
2022/10/29 08:31:35;;;;;;;8.58;7.00;;;;;;;13.76;100.00;100236.11;1795569;77;21068;-47
2022/10/29 08:34:02;;;;;;;10.15;7.85;;;;;;;13.82;100.00;100235.78;1798836;77;23297;-49
2022/10/29 08:36:28;;;;;;;8.78;7.50;;;;;;;13.89;100.00;100239.42;1806204;77;21115;-48
2022/10/29 08:38:56;;;;;;;9.90;8.13;;;;;;;13.98;100.00;100252.93;1812849;77;21007;-47
2022/10/29 08:41:51;;;;;;;13.10;8.95;;;;;;;14.03;100.00;100250.36;1749171;80;21059;-48
2022/10/29 08:44:24;;;;;;;13.95;9.35;;;;;;;14.08;100.00;100251.48;1757148;78;27800;-47
2022/10/29 08:46:58;;;;;;;16.40;11.05;;;;;;;14.14;100.00;100244.36;1775065;78;22949;-49
2022/10/29 08:49:32;;;;;;;9.30;7.70;;;;;;;14.20;100.00;100248.11;1748837;80;21079;-47
2022/10/29 08:52:06;;;;;;;8.63;7.22;;;;;;;14.23;100.00;100244.34;1748651;80;28056;-48
2022/10/29 08:54:36;;;;;;;6.28;5.67;;;;;;;14.30;100.00;100237.61;1747189;80;21735;-48
2022/10/29 08:57:11;;;;;;;6.90;5.62;;;;;;;14.34;100.00;100232.44;1749839;80;21068;-46
2022/10/29 09:00:02;;;;;;;6.75;6.10;;;;;;;14.37;100.00;100222.28;1746298;80;21837;-48
2022/10/29 09:02:29;;;;;;;7.00;5.33;;;;;;;14.42;100.00;100230.20;1713583;80;21538;-46
2022/10/29 09:04:56;;;;;;;6.58;4.95;;;;;;;14.49;100.00;100225.30;1742174;79;21518;-47
2022/10/29 09:07:50;;;;;;;6.70;6.10;;;;;;;14.57;100.00;100223.03;1749332;79;21044;-47
2022/10/29 09:10:37;;;;;;;11.12;5.40;;;;;;;14.67;100.00;100220.20;1744618;79;21589;-47
2022/10/29 09:13:20;;;;;;;8.45;5.80;;;;;;;14.80;100.00;100217.16;1737325;79;23032;-48
2022/10/29 09:16:27;;;;;;;9.48;7.33;;;;;;;14.90;100.00;100218.84;1742794;79;21060;-47
2022/10/29 09:19:20;;;;;;;7.87;6.17;;;;;;;14.96;100.00;100219.87;1757464;79;21009;-47
2022/10/29 09:22:02;;;;;;;6.55;5.87;;;;;;;15.00;100.00;100219.58;1671266;82;21106;-50
2022/10/29 09:24:41;;;;;;;6.42;5.85;;;;;;;15.06;100.00;100210.20;1743517;79;21563;-47
2022/10/29 09:27:22;;;;;;;8.23;6.20;;;;;;;15.13;100.00;100200.77;1746747;79;21850;-47
2022/10/29 09:30:14;;;;;;;10.10;5.78;;;;;;;15.18;100.00;100196.41;1730127;80;21072;-47
2022/10/29 09:33:06;;;;;;;10.00;5.70;;;;;;;15.25;100.00;100191.88;1742971;79;21504;-47
2022/10/29 09:35:39;;;;;;;9.83;6.22;;;;;;;15.29;100.00;100190.73;1746402;79;22202;-48
2022/10/29 09:38:17;;;;;;;11.83;5.50;;;;;;;15.31;100.00;100191.49;1750777;79;21059;-48
2022/10/29 09:40:43;;;;;;;11.63;6.90;;;;;;;15.35;100.00;100192.19;1743397;79;22461;-49
2022/10/29 09:43:38;;;;;;;8.40;6.10;;;;;;;15.37;100.00;100187.08;1740817;79;21036;-47
2022/10/29 09:46:38;;;;;;;6.83;5.47;;;;;;;15.41;100.00;100172.82;1748727;79;21021;-47
2022/10/29 09:49:35;;;;;;;7.15;5.65;;;;;;;15.44;100.00;100166.73;1743105;79;21065;-48
2022/10/29 09:52:22;;;;;;;9.00;5.95;;;;;;;15.50;100.00;100177.69;1747492;79;22005;-48
2022/10/29 09:54:50;;;;;;;11.33;6.72;;;;;;;15.54;100.00;100168.92;1746236;79;21822;-47
2022/10/29 09:57:20;;;;;;;9.23;6.40;;;;;;;15.63;100.00;100156.14;1750349;79;21738;-49
2022/10/29 09:59:53;;;;;;;6.08;5.28;;;;;;;15.68;100.00;100147.21;1745770;79;21072;-47
2022/10/29 10:02:35;;;;;;;6.60;5.05;;;;;;;15.76;100.00;100149.83;1752942;79;21068;-48
2022/10/29 10:05:06;;;;;;;7.05;4.78;;;;;;;15.82;100.00;100145.87;1748027;79;21048;-48
2022/10/29 10:07:32;;;;;;;5.83;5.15;;;;;;;15.87;100.00;100132.87;1748793;79;21921;-49
2022/10/29 10:10:02;;;;;;;4.25;3.80;;;;;;;15.91;100.00;100136.27;1744220;79;21580;-48
2022/10/29 10:12:43;;;;;;;6.65;4.62;;;;;;;15.94;100.00;100131.98;1741851;79;21024;-47
2022/10/29 10:15:25;;;;;;;3.95;3.58;;;;;;;15.96;100.00;100135.00;1759578;79;21167;-50
2022/10/29 10:18:05;;;;;;;10.32;4.42;;;;;;;15.99;100.00;100136.66;1742167;79;21104;-51
2022/10/29 10:20:39;;;;;;;8.65;3.52;;;;;;;16.02;100.00;100129.64;1743246;79;21894;-51
2022/10/29 10:23:21;;;;;;;8.15;4.45;;;;;;;16.05;100.00;100124.03;1749965;79;21074;-52
2022/10/29 10:25:48;;;;;;;8.73;4.50;;;;;;;16.10;100.00;100106.45;1750756;79;21151;-47
2022/10/29 10:28:18;;;;;;;7.70;4.25;;;;;;;16.16;100.00;100107.92;1767105;79;21771;-47
2022/10/29 10:31:04;;;;;;;11.60;4.25;;;;;;;16.20;100.00;100110.31;1742504;79;21076;-47
2022/10/29 10:33:32;;;;;;;5.97;3.87;;;;;;;16.21;100.00;100099.84;1742572;79;21913;-48
2022/10/29 10:36:05;;;;;;;5.42;4.58;;;;;;;16.23;100.00;100096.55;1727267;81;21084;-48
2022/10/29 10:38:44;;;;;;;5.17;3.20;;;;;;;16.24;100.00;100085.20;1731687;81;21577;-51
2022/10/29 10:41:11;;;;;;;6.83;4.45;;;;;;;16.23;100.00;100078.02;1741094;79;21080;-47
2022/10/29 10:43:43;;;;;;;6.78;5.20;;;;;;;16.23;100.00;100069.39;1764758;79;21131;-48
2022/10/29 10:46:14;;;;;;;6.78;3.77;;;;;;;16.23;100.00;100080.25;1712103;80;21516;-46
2022/10/29 10:48:42;;;;;;;4.47;3.17;;;;;;;16.24;100.00;100068.90;1740735;80;21308;-50
2022/10/29 10:51:30;;;;;;;4.35;3.25;;;;;;;16.25;100.00;100066.05;1749582;79;21144;-48
2022/10/29 10:53:58;;;;;;;10.95;5.00;;;;;;;16.27;100.00;100053.73;1664574;84;21809;-47
2022/10/29 10:56:26;;;;;;;8.18;3.85;;;;;;;16.29;100.00;100053.16;1743812;78;21429;-48
2022/10/29 10:59:06;;;;;;;10.85;4.42;;;;;;;16.30;100.00;100058.10;1769702;79;21957;-48
2022/10/29 11:01:41;;;;;;;5.78;4.15;;;;;;;16.31;100.00;100058.00;1770415;79;21035;-48
2022/10/29 11:04:22;;;;;;;5.67;4.05;;;;;;;16.32;100.00;100050.25;1740807;79;21068;-48
2022/10/29 11:06:50;;;;;;;4.33;2.83;;;;;;;16.33;100.00;100045.69;1734686;79;21059;-48
2022/10/29 11:09:37;;;;;;;5.55;2.95;;;;;;;16.33;100.00;100042.97;1692330;79;21021;-50
2022/10/29 11:12:31;;;;;;;6.40;3.65;;;;;;;16.33;100.00;100047.91;1742006;79;21931;-47
2022/10/29 11:15:11;;;;;;;5.33;3.45;;;;;;;16.35;100.00;100045.06;1739098;79;21048;-47
2022/10/29 11:17:50;;;;;;;4.40;3.05;;;;;;;16.34;100.00;100052.34;1741189;79;21115;-49
2022/10/29 11:20:25;;;;;;;5.90;4.05;;;;;;;16.36;100.00;100040.89;1730255;79;21146;-47
2022/10/29 11:23:26;;;;;;;;;;;;;;;16.38;100.00;100044.39;1741114;79;21151;-50
2022/10/29 11:26:13;;;;;;;7.28;3.77;;;;;;;16.40;100.00;100039.73;1744893;79;21967;-50
2022/10/29 11:28:50;;;;;;;5.65;3.70;;;;;;;16.40;100.00;100026.15;1714993;81;22064;-49
2022/10/29 11:31:28;;;;;;;8.65;5.08;;;;;;;16.41;100.00;100025.17;1741418;79;21542;-49
2022/10/29 11:34:12;;;;;;;7.55;5.37;;;;;;;16.41;100.00;100016.16;1742591;79;21561;-50
2022/10/29 11:36:43;;;;;;;7.50;4.72;;;;;;;16.39;100.00;100014.89;1736690;80;21880;-49
2022/10/29 11:39:21;;;;;;;6.55;3.92;;;;;;;16.38;100.00;100006.36;1741345;79;22266;-49